KCPS/CPS METAR and TAF weather

Enter ICAO airport designator
Station Type Date Time Source
KCPS METAR 2018/04/20 08:53 UTC NOAA

KCPS 200853Z AUTO 00000KT 10SM CLR 01/M02 A3044 RMK AO2 SLP310 T00061017 53005 TSNO


Station Type Date Time Source
KCPS Decoded METAR 2018/04/20 08:53 UTC NOAA

ST LOUIS DOWNTOWN AIRPORT, IL, United States (KCPS) 38-34N 090-09W 126M
Apr 20, 2018 - 04:53 AM EDT / 2018.04.20 0853 UTC
Wind: Calm:0
Visibility: 10 mile(s):0
Sky conditions: clear
Temperature: 33.1 F (0.6 C)
Dew Point: 28.9 F (-1.7 C)
Relative Humidity: 84%
Pressure (altimeter): 30.44 in. Hg (1030 hPa)
Pressure tendency: 0.01 inches (0.5 hPa) higher than three hours ago
ob: KCPS 200853Z AUTO 00000KT 10SM CLR 01/M02 A3044 RMK AO2 SLP310 T00061017 53005 TSNO
cycle: 9

Station Type Date Time Source
KCPS TAF 2018/04/20 06:22 UTC NOAA

TAF KCPS 200520Z 2006/2106 VRB02KT P6SM SKC
FM201500 10008KT P6SM FEW150
FM210200 VRB03KT P6SM SCT150


Example: see airport list